Hlavní strana
METAR-TAF:

METAR-TAF

Letiště :

Norimberk, Německo

zeměpisná šířka: 49-30N, zeměpisná délka: 011-03E, výška: 318 m

Aktuální stav počasí

Zpráva byla vytvořena před 24 minutami, v 16:50 UTC
Východní vítr 12 kt, proměnlivý mezi severovýchodním a východojihovýchodním
Teplota 5°C
Vlhkost vzduchu 56%
Tlak 1029 hPa
Viditelnost 10 km a více
Žádná oblačnost pod 1500 m, nevyskytují se cumulonimby.

METAR: EDDN 171650Z 08012KT 040V110 CAVOK 05/M03 Q1029 NOSIG

Čas: 18:14 (17:14 UTC)

Předpověď počasí

Zpráva byla vytvořena před 6 hodinami a 14 minutami, v 11:00 UTC
Předpověď platná od 17 v 12 UTC do 18 v 12 UTC
Východní vítr 12 kt
Viditelnost 10 km a více
Žádná oblačnost pod 1500 m, nevyskytují se cumulonimby.
Pravděpodobnost 30% :
Dočasný
od 17 v 12 UTC do 17 v 14 UTC
Východní vítr 15 kt s nárazy do 25 kt
Změna
od 17 v 15 UTC do 17 v 17 UTC
Východoseverovýchodní vítr 7 kt

TAF: EDDN 171100Z 1712/1812 08012KT CAVOK PROB30 TEMPO 1712/1714 08015G25KT BECMG 1715/1717 07007KT

Stav a předpovědi počasí z více než 4 000 letišť (zprávy METAR a TAF).

Červené a žluté tečky na mapě představují dostupné meteorologické stanice.

Když kurzor umístíte na tečku, zobrazí se název stanice.

Pak kliknutím zobrazíte stav a předpověď počasí.

Chcete-li změnit mapu, kliknutím na zelené tlačítko se znaménkem +mapu přiblížíte, kliknutím na zelené tlačítko se znaménkem – mapu oddálíte a kliknutím na zelené šipky přejdete na sousední mapy.


METAR-TAF: